createdAt,value
2022-08-17T00:01:55.130Z,18.27
2022-08-17T00:04:50.302Z,18.15
2022-08-17T00:07:40.240Z,20.13
2022-08-17T00:10:45.940Z,19.52
2022-08-17T00:13:36.043Z,19.67
2022-08-17T00:16:55.757Z,19.23
2022-08-17T00:19:33.112Z,20.17
2022-08-17T00:22:31.580Z,20.08
2022-08-17T00:25:26.694Z,18.55
2022-08-17T00:28:16.122Z,19.27
2022-08-17T00:31:02.784Z,19.77
2022-08-17T00:33:54.230Z,21.48
2022-08-17T00:36:43.878Z,19.00
2022-08-17T00:39:30.194Z,18.65
2022-08-17T00:42:19.548Z,20.10
2022-08-17T00:45:08.174Z,19.27
2022-08-17T00:47:54.201Z,18.92
2022-08-17T00:51:16.809Z,20.60
2022-08-17T00:54:20.008Z,18.42
2022-08-17T00:57:11.068Z,20.42
2022-08-17T01:00:03.752Z,19.48
2022-08-17T01:02:50.669Z,17.05
2022-08-17T01:05:42.113Z,18.23
2022-08-17T01:08:31.213Z,18.38
2022-08-17T01:11:46.507Z,19.90
2022-08-17T01:14:33.307Z,19.38
2022-08-17T01:17:19.744Z,18.90
2022-08-17T01:20:05.922Z,19.85
2022-08-17T01:22:55.476Z,18.83
2022-08-17T01:25:42.126Z,20.63
2022-08-17T01:28:52.832Z,21.17
2022-08-17T01:31:48.057Z,18.83
2022-08-17T01:34:42.380Z,20.83
2022-08-17T01:37:39.797Z,22.10
2022-08-17T01:40:43.927Z,21.90
2022-08-17T01:43:45.502Z,19.55
2022-08-17T01:46:35.007Z,22.13
2022-08-17T01:49:21.413Z,21.33
2022-08-17T01:52:10.217Z,22.10
2022-08-17T01:54:56.813Z,21.58
2022-08-17T01:57:45.495Z,21.30
2022-08-17T02:01:00.158Z,23.25
2022-08-17T02:03:38.563Z,22.63
2022-08-17T02:06:27.008Z,24.67
2022-08-17T02:09:26.197Z,22.42
2022-08-17T02:12:38.254Z,22.13
2022-08-17T02:15:26.742Z,23.00
2022-08-17T02:18:15.662Z,22.33
2022-08-17T02:21:01.603Z,23.77
2022-08-17T02:23:50.077Z,22.67
2022-08-17T02:26:36.621Z,22.02
2022-08-17T02:29:23.557Z,22.15
2022-08-17T02:32:27.372Z,24.30
2022-08-17T02:35:14.618Z,21.95
2022-08-17T02:38:06.929Z,22.48
2022-08-17T02:40:52.978Z,23.38
2022-08-17T02:43:38.781Z,23.63
2022-08-17T02:46:24.713Z,23.27
2022-08-17T02:49:12.012Z,24.30
2022-08-17T02:51:58.655Z,23.73
2022-08-17T02:54:45.208Z,23.38
2022-08-17T02:57:31.349Z,22.95
2022-08-17T03:00:24.724Z,23.45
2022-08-17T03:03:13.666Z,24.02
2022-08-17T03:06:00.949Z,23.25
2022-08-17T03:08:47.545Z,22.95
2022-08-17T03:11:33.487Z,22.17
2022-08-17T03:14:19.469Z,23.50
2022-08-17T03:17:17.182Z,22.10
2022-08-17T03:20:05.895Z,22.90
2022-08-17T03:22:55.839Z,22.92
2022-08-17T03:25:49.074Z,23.13
2022-08-17T03:28:40.555Z,23.88
2022-08-17T03:31:26.812Z,24.25
2022-08-17T03:34:14.427Z,23.83
2022-08-17T03:37:00.650Z,24.98
2022-08-17T03:39:47.385Z,23.05
2022-08-17T03:42:34.675Z,24.17
2022-08-17T03:45:43.333Z,25.17
2022-08-17T03:48:47.790Z,23.80
2022-08-17T03:51:52.494Z,24.65
2022-08-17T03:54:58.254Z,24.45
2022-08-17T03:57:44.781Z,23.73
2022-08-17T04:00:30.953Z,23.27
2022-08-17T04:03:17.931Z,24.30
2022-08-17T04:06:04.009Z,25.67
2022-08-17T04:08:50.056Z,26.80
2022-08-17T04:11:36.876Z,27.13
2022-08-17T04:14:23.504Z,27.40
2022-08-17T04:17:09.481Z,27.48
2022-08-17T04:19:56.332Z,29.35
2022-08-17T04:23:07.108Z,27.33
2022-08-17T04:25:53.870Z,26.92
2022-08-17T04:28:40.857Z,27.83
2022-08-17T04:31:28.272Z,26.80
2022-08-17T04:34:15.829Z,28.50
2022-08-17T04:37:07.685Z,27.25
2022-08-17T04:40:13.623Z,28.30
2022-08-17T04:43:12.341Z,27.02
2022-08-17T04:46:07.343Z,28.23
2022-08-17T04:48:56.355Z,26.58
2022-08-17T04:51:54.563Z,26.35
2022-08-17T04:54:43.194Z,27.45
2022-08-17T04:57:29.043Z,27.90
2022-08-17T05:00:25.854Z,26.35
2022-08-17T05:03:12.491Z,29.60
2022-08-17T05:05:58.899Z,27.67
2022-08-17T05:08:44.907Z,27.63
2022-08-17T05:11:31.429Z,29.15
2022-08-17T05:14:17.880Z,28.65
2022-08-17T05:17:04.552Z,31.10
2022-08-17T05:19:56.769Z,30.33
2022-08-17T05:22:54.511Z,28.17
2022-08-17T05:25:51.594Z,29.80
2022-08-17T05:28:37.903Z,29.52
2022-08-17T05:31:24.562Z,30.25
2022-08-17T05:34:11.466Z,29.63
2022-08-17T05:36:57.878Z,28.48
2022-08-17T05:39:43.802Z,30.38
2022-08-17T05:42:30.669Z,30.83
2022-08-17T05:45:39.877Z,29.98
2022-08-17T05:48:39.447Z,29.05
2022-08-17T05:51:44.933Z,30.67
2022-08-17T05:54:47.655Z,32.10
2022-08-17T05:57:53.117Z,30.63
2022-08-17T06:00:53.497Z,30.95
2022-08-17T06:03:54.975Z,31.88
2022-08-17T06:06:53.022Z,33.33
2022-08-17T06:09:46.993Z,35.17
2022-08-17T06:13:00.839Z,32.88
2022-08-17T06:15:53.694Z,33.53
2022-08-17T06:18:47.690Z,33.17
2022-08-17T06:21:38.821Z,31.40
2022-08-17T06:25:10.195Z,32.88
2022-08-17T06:28:02.747Z,32.75
2022-08-17T06:31:00.673Z,32.70
2022-08-17T06:33:47.514Z,33.45
2022-08-17T06:36:42.383Z,34.92
2022-08-17T06:39:51.236Z,33.40
2022-08-17T06:43:02.847Z,33.63
2022-08-17T06:46:14.530Z,34.30
2022-08-17T06:49:11.587Z,34.72
2022-08-17T06:52:37.215Z,37.08
2022-08-17T06:55:28.817Z,40.05
2022-08-17T06:58:21.208Z,39.38
2022-08-17T07:01:14.800Z,39.30
2022-08-17T07:04:24.302Z,39.28
2022-08-17T07:07:30.032Z,40.47
2022-08-17T07:10:17.375Z,39.90
2022-08-17T07:13:29.616Z,41.15
2022-08-17T07:16:22.072Z,42.25
2022-08-17T07:19:10.783Z,43.00
2022-08-17T07:22:22.586Z,45.83
2022-08-17T07:25:13.072Z,45.05
2022-08-17T07:28:06.956Z,44.58
2022-08-17T07:30:55.068Z,46.30
2022-08-17T07:34:03.551Z,44.45
2022-08-17T07:37:05.302Z,47.53
2022-08-17T07:39:59.631Z,47.40
2022-08-17T07:43:04.997Z,45.95
2022-08-17T07:46:18.355Z,49.58
2022-08-17T07:49:04.987Z,50.13
2022-08-17T07:51:51.279Z,51.72
2022-08-17T07:54:42.446Z,53.15
2022-08-17T07:57:35.396Z,55.20
2022-08-17T08:00:29.126Z,56.70
2022-08-17T08:03:27.226Z,54.65
2022-08-17T08:06:24.253Z,54.33
2022-08-17T08:09:48.547Z,53.03
2022-08-17T08:15:36.044Z,54.83
2022-08-17T08:18:38.574Z,58.60
2022-08-17T08:22:04.082Z,57.40
2022-08-17T08:25:23.522Z,50.67
2022-08-17T08:28:26.111Z,48.85
2022-08-17T08:31:38.888Z,48.30
2022-08-17T08:35:01.923Z,47.00
2022-08-17T08:38:25.443Z,49.90
2022-08-17T08:41:17.680Z,49.97
2022-08-17T08:44:59.536Z,49.83
2022-08-17T08:48:05.893Z,48.50
2022-08-17T08:51:21.491Z,51.15
2022-08-17T08:54:31.568Z,48.70
2022-08-17T08:57:33.963Z,47.30
2022-08-17T09:00:26.291Z,48.30
2022-08-17T09:03:50.950Z,47.00
2022-08-17T09:07:06.791Z,45.67
2022-08-17T09:10:25.558Z,46.63
2022-08-17T09:13:24.759Z,43.13
2022-08-17T09:16:29.760Z,38.83
2022-08-17T09:19:49.412Z,39.08
2022-08-17T09:22:48.473Z,40.03
2022-08-17T09:25:49.676Z,37.35
2022-08-17T09:28:38.376Z,37.50
2022-08-17T09:31:46.419Z,39.85
2022-08-17T09:34:47.106Z,39.15
2022-08-17T09:38:01.157Z,33.92
2022-08-17T09:40:57.501Z,36.58
2022-08-17T09:46:54.808Z,36.90
2022-08-17T09:49:59.987Z,35.53
2022-08-17T09:52:46.169Z,34.88
2022-08-17T09:56:01.279Z,35.53
2022-08-17T09:59:20.392Z,30.92
2022-08-17T10:02:35.904Z,29.50
2022-08-17T10:05:41.315Z,30.88
2022-08-17T10:08:47.098Z,30.50
2022-08-17T10:12:11.191Z,30.52
2022-08-17T10:15:07.999Z,30.00
2022-08-17T10:18:17.763Z,27.83
2022-08-17T10:21:34.035Z,26.77
2022-08-17T10:25:21.760Z,29.42
2022-08-17T10:28:14.251Z,29.55
2022-08-17T10:31:34.409Z,31.33
2022-08-17T10:34:38.831Z,31.33
2022-08-17T10:37:30.980Z,30.83
2022-08-17T10:40:17.687Z,27.48
2022-08-17T10:43:37.006Z,30.10
2022-08-17T10:46:55.101Z,30.50
2022-08-17T10:49:47.520Z,30.25
2022-08-17T10:52:33.606Z,29.27
2022-08-17T10:55:20.395Z,28.42
2022-08-17T10:58:21.827Z,27.52
2022-08-17T11:01:12.480Z,27.90
2022-08-17T11:04:04.862Z,29.40
2022-08-17T11:07:26.000Z,27.73
2022-08-17T11:10:18.146Z,27.38
2022-08-17T11:13:23.865Z,29.17
2022-08-17T11:16:29.545Z,25.88
2022-08-17T11:19:33.886Z,25.30
2022-08-17T11:22:52.476Z,27.50
2022-08-17T11:25:52.098Z,27.38
2022-08-17T11:28:52.630Z,25.67
2022-08-17T11:31:58.321Z,22.30
2022-08-17T11:34:45.014Z,25.15
2022-08-17T11:38:16.272Z,24.50
2022-08-17T11:41:30.189Z,24.05
2022-08-17T11:44:38.082Z,23.65
2022-08-17T11:48:26.075Z,26.90
2022-08-17T11:51:34.536Z,24.98
2022-08-17T11:54:38.872Z,24.98
2022-08-17T11:57:29.277Z,27.15
2022-08-17T12:00:49.462Z,27.48
2022-08-17T12:03:36.788Z,25.63
2022-08-17T12:06:44.635Z,25.77
2022-08-17T12:09:34.463Z,25.80
2022-08-17T12:12:29.662Z,23.35
2022-08-17T12:15:28.566Z,22.38
2022-08-17T12:18:28.005Z,22.60
2022-08-17T12:21:24.915Z,24.05
2022-08-17T12:24:36.876Z,22.33
2022-08-17T12:27:46.111Z,22.63
2022-08-17T12:30:39.519Z,22.38
2022-08-17T12:33:31.022Z,21.30
2022-08-17T12:36:21.368Z,21.67
2022-08-17T12:39:14.042Z,20.00
2022-08-17T12:44:50.256Z,18.08
2022-08-17T12:47:38.269Z,19.25
2022-08-17T12:50:28.984Z,20.73
2022-08-17T12:53:30.015Z,21.15
2022-08-17T12:56:16.224Z,20.88
2022-08-17T12:59:02.483Z,18.73
2022-08-17T13:01:48.936Z,20.00
2022-08-17T13:04:39.937Z,17.02
2022-08-17T13:07:33.064Z,15.85
2022-08-17T13:10:32.255Z,16.33
2022-08-17T13:13:26.722Z,14.20
2022-08-17T13:16:12.909Z,15.63
2022-08-17T13:19:07.151Z,14.45
2022-08-17T13:21:58.359Z,14.60
2022-08-17T13:24:54.122Z,14.10
2022-08-17T13:27:43.047Z,15.45
2022-08-17T13:30:33.287Z,15.05
2022-08-17T13:33:43.457Z,14.00
2022-08-17T13:36:33.895Z,14.70
2022-08-17T13:39:23.191Z,15.75
2022-08-17T13:42:50.390Z,12.93
2022-08-17T13:45:46.079Z,11.93
2022-08-17T13:48:37.280Z,11.02
2022-08-17T13:51:47.377Z,11.35
2022-08-17T13:54:37.047Z,10.45
2022-08-17T13:57:25.459Z,9.57
2022-08-17T14:00:30.062Z,10.43
2022-08-17T14:03:15.977Z,9.82
2022-08-17T14:06:05.885Z,8.95
2022-08-17T14:08:55.786Z,10.00
2022-08-17T14:11:42.861Z,8.15
2022-08-17T14:14:29.322Z,8.18
2022-08-17T14:17:16.510Z,8.27
2022-08-17T14:20:03.340Z,7.97
2022-08-17T14:22:52.113Z,8.27
2022-08-17T14:25:38.244Z,8.23
2022-08-17T14:28:24.572Z,8.60
2022-08-17T14:31:13.750Z,8.75
2022-08-17T14:33:59.781Z,7.43
2022-08-17T14:36:48.527Z,8.23
2022-08-17T14:39:34.988Z,8.10
2022-08-17T14:42:24.632Z,7.32
2022-08-17T14:45:32.981Z,8.13
2022-08-17T14:48:17.660Z,8.02
2022-08-17T14:51:04.813Z,8.15
2022-08-17T14:53:50.999Z,9.75
2022-08-17T14:56:38.270Z,9.00
2022-08-17T14:59:24.382Z,8.93
2022-08-17T15:02:10.801Z,8.32
2022-08-17T15:05:02.160Z,9.55
2022-08-17T15:07:48.236Z,9.10
2022-08-17T15:10:34.925Z,9.63
2022-08-17T15:13:24.551Z,9.13
2022-08-17T15:16:13.693Z,10.38
2022-08-17T15:18:59.886Z,9.35
2022-08-17T15:21:47.032Z,10.13
2022-08-17T15:24:33.706Z,9.88
2022-08-17T15:27:32.238Z,9.60
2022-08-17T15:30:19.180Z,10.05
2022-08-17T15:33:05.328Z,9.65
2022-08-17T15:35:53.390Z,9.40
2022-08-17T15:38:39.692Z,8.52
2022-08-17T15:41:28.219Z,8.32
2022-08-17T15:44:14.472Z,7.97
2022-08-17T15:47:02.909Z,7.88
2022-08-17T15:49:48.764Z,7.57
2022-08-17T15:52:40.530Z,7.25
2022-08-17T15:55:28.901Z,7.70
2022-08-17T15:58:15.038Z,7.93
2022-08-17T16:01:15.175Z,7.68
2022-08-17T16:04:07.286Z,8.32
2022-08-17T16:07:12.094Z,7.63
2022-08-17T16:09:58.130Z,8.10
2022-08-17T16:12:46.666Z,7.82
2022-08-17T16:15:32.997Z,7.95
2022-08-17T16:18:19.263Z,8.63
2022-08-17T16:21:27.572Z,8.60
2022-08-17T16:24:14.882Z,9.02
2022-08-17T16:27:04.447Z,8.30
2022-08-17T16:29:58.668Z,8.57
2022-08-17T16:32:45.289Z,8.55
2022-08-17T16:35:31.507Z,8.07
2022-08-17T16:38:18.795Z,7.60
2022-08-17T16:41:05.900Z,8.50
2022-08-17T16:43:52.137Z,8.05
2022-08-17T16:46:40.243Z,8.40
2022-08-17T16:49:36.963Z,9.50
2022-08-17T16:52:32.176Z,9.35
2022-08-17T16:55:22.172Z,9.48
2022-08-17T16:58:11.652Z,8.52
2022-08-17T17:00:59.465Z,9.55
2022-08-17T17:03:54.118Z,8.75
2022-08-17T17:07:05.576Z,8.50
2022-08-17T17:09:55.347Z,9.73
2022-08-17T17:13:01.467Z,8.73
2022-08-17T17:16:00.771Z,9.30
2022-08-17T17:19:12.410Z,9.80
2022-08-17T17:22:22.814Z,9.38
2022-08-17T17:25:27.234Z,10.10
2022-08-17T17:28:34.668Z,9.95
2022-08-17T17:31:25.197Z,11.02
2022-08-17T17:34:16.523Z,10.02
2022-08-17T17:36:55.105Z,10.93
2022-08-17T17:39:49.032Z,10.70
2022-08-17T17:42:39.447Z,10.57
2022-08-17T17:45:32.590Z,12.57
2022-08-17T17:48:18.937Z,11.57
2022-08-17T17:52:09.042Z,12.25
2022-08-17T17:54:49.538Z,13.35
2022-08-17T17:57:55.919Z,11.25
2022-08-17T18:00:52.116Z,12.48
2022-08-17T18:04:21.256Z,12.90
2022-08-17T18:07:23.587Z,12.77
2022-08-17T18:10:44.926Z,12.80
2022-08-17T18:13:53.677Z,14.60
2022-08-17T18:16:42.847Z,13.68
2022-08-17T18:19:31.433Z,14.48
2022-08-17T18:22:20.208Z,14.77
2022-08-17T18:25:38.465Z,14.60
2022-08-17T18:29:27.724Z,14.75
2022-08-17T18:32:23.932Z,14.70
2022-08-17T18:35:15.244Z,15.55
2022-08-17T18:39:14.537Z,14.80
2022-08-17T18:42:18.817Z,15.05
2022-08-17T18:45:15.013Z,15.32
2022-08-17T18:48:40.049Z,14.60
2022-08-17T18:51:41.703Z,15.10
2022-08-17T18:54:29.202Z,14.05
2022-08-17T18:57:34.858Z,15.93
2022-08-17T19:00:43.590Z,16.52
2022-08-17T19:03:31.778Z,17.58
2022-08-17T19:06:23.874Z,18.17
2022-08-17T19:09:35.939Z,18.58
2022-08-17T19:12:40.544Z,16.80
2022-08-17T19:15:47.706Z,15.90
2022-08-17T19:19:26.823Z,16.15
2022-08-17T19:22:38.265Z,16.38
2022-08-17T19:25:31.618Z,15.93
2022-08-17T19:28:23.172Z,15.07
2022-08-17T19:31:17.102Z,15.95
2022-08-17T19:34:03.329Z,15.48
2022-08-17T19:37:08.910Z,14.95
2022-08-17T19:40:51.791Z,15.10
2022-08-17T19:43:48.021Z,14.07
2022-08-17T19:46:56.386Z,15.50
2022-08-17T19:49:53.055Z,16.05
2022-08-17T19:52:55.271Z,15.10
2022-08-17T19:55:51.035Z,15.63
2022-08-17T19:58:48.897Z,16.13
2022-08-17T20:02:03.735Z,14.02
2022-08-17T20:04:53.254Z,14.07
2022-08-17T20:07:54.232Z,14.57
2022-08-17T20:11:01.368Z,14.95
2022-08-17T20:13:56.369Z,14.50
2022-08-17T20:16:42.704Z,14.80
2022-08-17T20:19:45.363Z,14.52
2022-08-17T20:22:52.186Z,14.77
2022-08-17T20:25:54.002Z,17.20
2022-08-17T20:29:15.321Z,15.13
2022-08-17T20:32:01.378Z,15.25
2022-08-17T20:34:47.890Z,16.67
2022-08-17T20:37:36.242Z,16.13
2022-08-17T20:40:27.920Z,15.93
2022-08-17T20:43:32.558Z,16.30
2022-08-17T20:46:51.655Z,17.10
2022-08-17T20:49:44.630Z,17.52
2022-08-17T20:52:53.727Z,19.65
2022-08-17T20:55:52.516Z,18.63
2022-08-17T20:58:47.220Z,19.10
2022-08-17T21:01:40.725Z,18.63
2022-08-17T21:05:00.994Z,19.02
2022-08-17T21:10:35.620Z,18.70
2022-08-17T21:13:34.686Z,18.88
2022-08-17T21:16:58.698Z,18.25
2022-08-17T21:20:00.523Z,19.33
2022-08-17T21:23:12.203Z,18.52
2022-08-17T21:25:58.463Z,17.90
2022-08-17T21:29:31.423Z,18.40
2022-08-17T21:32:29.258Z,17.90
2022-08-17T21:35:26.093Z,18.05
2022-08-17T21:38:15.613Z,17.73
2022-08-17T21:41:01.567Z,16.95
2022-08-17T21:43:51.005Z,17.95
2022-08-17T21:46:39.796Z,16.73
2022-08-17T21:49:28.775Z,18.58
2022-08-17T21:52:17.594Z,17.23
2022-08-17T21:55:04.292Z,16.67
2022-08-17T21:58:13.347Z,16.55
2022-08-17T22:01:27.006Z,16.98
2022-08-17T22:04:13.136Z,17.65
2022-08-17T22:07:02.717Z,16.73
2022-08-17T22:09:50.109Z,16.33
2022-08-17T22:12:38.443Z,16.70
2022-08-17T22:15:25.106Z,17.20
2022-08-17T22:18:20.597Z,16.83
2022-08-17T22:21:08.219Z,15.98
2022-08-17T22:24:06.576Z,19.23
2022-08-17T22:27:07.528Z,18.30
2022-08-17T22:29:58.007Z,17.30
2022-08-17T22:32:46.717Z,17.40
2022-08-17T22:35:36.170Z,16.50
2022-08-17T22:38:22.286Z,16.20
2022-08-17T22:41:20.284Z,17.17
2022-08-17T22:44:15.763Z,16.17
2022-08-17T22:47:16.934Z,16.92
2022-08-17T22:50:05.211Z,17.85
2022-08-17T22:53:20.123Z,16.42
2022-08-17T22:56:25.933Z,17.42
2022-08-17T22:59:21.311Z,15.93
2022-08-17T23:02:26.864Z,16.05
2022-08-17T23:05:16.807Z,17.35
2022-08-17T23:08:03.731Z,16.27
2022-08-17T23:10:49.896Z,17.45
2022-08-17T23:13:37.926Z,16.92
2022-08-17T23:16:30.881Z,16.73
2022-08-17T23:19:20.122Z,15.77
2022-08-17T23:22:09.818Z,15.15
2022-08-17T23:24:55.758Z,15.32
2022-08-17T23:27:41.894Z,13.63
2022-08-17T23:30:31.215Z,14.32
2022-08-17T23:33:30.236Z,13.73
2022-08-17T23:36:17.353Z,13.50
2022-08-17T23:39:04.901Z,14.40
2022-08-17T23:41:53.447Z,12.93
2022-08-17T23:44:41.662Z,13.27
2022-08-17T23:47:28.601Z,12.82
2022-08-17T23:50:15.830Z,12.95
2022-08-17T23:53:06.437Z,12.40
2022-08-17T23:56:04.605Z,11.65
2022-08-17T23:58:56.651Z,13.70
